GCRRGMFK

Guest
Details From GCRR - Lanzarote
To GMFK - MOULAY ALI CHERIF
Flight Number -
Tags generated
Created
Modified
Stats Distance 514 nm / 953 km
Max Altitude 35,000 ft / 10,668 m
Waypoints 7
Social Downloads 0
Likes 0
Share VATSIM

Download

Looking for another format? Having issues loading an existing format? Contact us
Advertisement - Login to hide

Notes

Basic altitude profile: - Ascent Rate: 2500ft/min - Ascent Speed: 250kts - Cruise Altitude: 35000ft - Cruise Speed: 420kts - Descent Rate: 1500ft/min - Descent Speed: 250kts Options: - Use NATs: yes - Use PACOTS: yes - Use low airways: yes - Use high airways: yes

Route

GCRR DEVLA UG850 ADM UG664 OZT G664 ERA GMFK

ID Type Via Altitude Latitude Longitude Leg Dist Tot Dist Heading (true) Name
O GCRR APT - 0 ft / 0 m 28.94547˚ -13.60522˚ - 0 nm - Lanzarote
DEVLA FIX - 17,800 ft / 5,425 m 29.24806˚ -12.71833˚ 49 nm 49 nm 68° / 69° -
ADM VOR UG850 (AWY-HI) 35,000 ft / 10,668 m 30.32194˚ -9.38333˚ 185 nm 235 nm 69° / 70° AGADIR VOR-DME
RUTAL FIX UG664 (AWY-HI) 35,000 ft / 10,668 m 30.58083˚ -8.38167˚ 54 nm 289 nm 73° / 74° -
OZT VOR UG664 (AWY-HI) 31,200 ft / 9,510 m 30.94000˚ -6.90444˚ 79 nm 368 nm 74° / 75° OUARZAZATE VOR-DME
ERA VOR G664 (AWY-LO) 15,500 ft / 4,724 m 31.92417˚ -4.36056˚ 143 nm 511 nm 65° / 66° ERRACHIDIA VOR-DME
O GMFK APT - 0 ft / 0 m 31.94825˚ -4.40096˚ 2 nm 514 nm 305° / 305° MOULAY ALI CHERIF

Altitude Profile

Advertisement - Login to hide

Weather


0- 5 10 15 20 25 30 35+ Temperature / ° C

Clouds and Precipitation
Forecast for 2017-12-16 00:00 UTC. Updated 31 minutes ago

Ground ~20,000 ft ~40,000 ft Winds

GCRR

Details ICAO GCRR (ACE)
Name Lanzarote
Region Canary Islands
Timezone Atlantic/Canary (UTC+0.0)
Stats Elevation 0 ft / 0 m (AMSL)
Location 28.945466° -13.605223°
Runways 1
Magnetic Variation 3.976° W

METAR

GCRR 152330Z VRB01KT 9999 FEW035 19/15 Q1023

Decode

TAF

TAF GCRR 152000Z 1521/1621 34005KT 9999 FEW025 TX22/1614Z TN15/1606Z BECMG 1610/1612 03015KT BECMG 1619/1620 34005KT

Decode

Departure Runways

ID Width Length Bearing (true) Bearing (mag) Surface Threshold Offset Overrun Length
03 148 ft / 45 m 7,893 ft / 2,406 m 26.90° 30.88° Asphalt 197 ft / 60 m 197 ft / 60 m
21 148 ft / 45 m 7,893 ft / 2,406 m 206.91° 210.89° Asphalt 197 ft / 60 m 197 ft / 60 m

GMFK

Details ICAO GMFK (ERH)
Name MOULAY ALI CHERIF
Region Morocco
Timezone Africa/Casablanca (UTC+0.0)
Stats Elevation 3,428 ft / 1,045 m (AMSL)
Location 31.948252° -4.400956°
Runways 1
Magnetic Variation 0.923° W

METAR

GMFK 152300Z 04002KT CAVOK 11/M03 Q1020 NOSIG

Decode

TAF

Not found

Destination Runways

ID Width Length Bearing (true) Bearing (mag) Surface Threshold Offset Overrun Length
13 148 ft / 45 m 10,576 ft / 3,224 m 125.08° 126.00° Asphalt 0 ft / 0 m 0 ft / 0 m
31 148 ft / 45 m 10,576 ft / 3,224 m 305.10° 306.02° Asphalt 0 ft / 0 m 0 ft / 0 m